createdAt,value
2022-11-19T00:02:07.198Z,5.80
2022-11-19T00:04:36.624Z,5.80
2022-11-19T00:07:04.773Z,5.80
2022-11-19T00:09:33.042Z,5.90
2022-11-19T00:12:18.360Z,5.90
2022-11-19T00:14:46.409Z,5.90
2022-11-19T00:17:14.358Z,5.90
2022-11-19T00:19:43.842Z,6.00
2022-11-19T00:22:12.096Z,6.00
2022-11-19T00:24:40.254Z,5.90
2022-11-19T00:27:08.219Z,5.80
2022-11-19T00:29:36.233Z,5.80
2022-11-19T00:32:04.443Z,5.70
2022-11-19T00:34:35.960Z,5.70
2022-11-19T00:37:05.369Z,5.60
2022-11-19T00:39:33.431Z,5.60
2022-11-19T00:42:01.699Z,5.60
2022-11-19T00:44:35.622Z,5.60
2022-11-19T00:47:05.182Z,5.60
2022-11-19T00:49:34.614Z,5.60
2022-11-19T00:52:02.599Z,5.60
2022-11-19T00:54:31.924Z,5.60
2022-11-19T00:56:59.946Z,5.60
2022-11-19T00:59:28.106Z,5.70
2022-11-19T01:01:56.124Z,5.70
2022-11-19T01:04:24.284Z,5.80
2022-11-19T01:06:52.262Z,5.70
2022-11-19T01:09:20.844Z,5.70
2022-11-19T01:11:50.356Z,5.70
2022-11-19T01:14:18.312Z,5.70
2022-11-19T01:16:46.312Z,5.80
2022-11-19T01:19:16.574Z,5.70
2022-11-19T01:21:44.860Z,5.70
2022-11-19T01:24:12.860Z,5.70
2022-11-19T01:26:45.474Z,5.70
2022-11-19T01:29:15.802Z,5.80
2022-11-19T01:31:43.901Z,5.80
2022-11-19T01:34:11.933Z,5.80
2022-11-19T01:36:39.937Z,5.80
2022-11-19T01:39:07.934Z,5.90
2022-11-19T01:41:36.303Z,5.90
2022-11-19T01:44:06.359Z,6.00
2022-11-19T01:46:37.313Z,6.00
2022-11-19T01:49:09.956Z,5.90
2022-11-19T01:51:42.221Z,6.00
2022-11-19T01:54:14.777Z,6.00
2022-11-19T01:56:43.223Z,6.00
2022-11-19T01:59:18.016Z,6.10
2022-11-19T02:01:47.598Z,6.10
2022-11-19T02:04:17.443Z,6.10
2022-11-19T02:06:46.728Z,6.10
2022-11-19T02:09:15.055Z,6.10
2022-11-19T02:11:58.604Z,6.20
2022-11-19T02:14:31.590Z,6.20
2022-11-19T02:17:12.216Z,6.00
2022-11-19T02:20:03.651Z,6.00
2022-11-19T02:22:53.032Z,6.00
2022-11-19T02:25:34.906Z,6.00
2022-11-19T02:28:27.120Z,6.00
2022-11-19T02:31:00.734Z,5.90
2022-11-19T02:33:42.044Z,5.90
2022-11-19T02:36:16.852Z,5.90
2022-11-19T02:38:52.149Z,6.00
2022-11-19T02:41:35.708Z,6.00
2022-11-19T02:44:21.565Z,6.00
2022-11-19T02:46:54.300Z,6.00
2022-11-19T02:49:25.315Z,6.10
2022-11-19T02:51:54.656Z,6.00
2022-11-19T02:54:22.682Z,6.00
2022-11-19T02:56:53.067Z,6.00
2022-11-19T02:59:46.212Z,5.90
2022-11-19T03:02:35.284Z,6.00
2022-11-19T03:05:05.020Z,6.10
2022-11-19T03:07:33.050Z,6.10
2022-11-19T03:10:04.398Z,6.10
2022-11-19T03:12:42.486Z,6.10
2022-11-19T03:15:41.862Z,6.10
2022-11-19T03:18:17.187Z,6.10
2022-11-19T03:20:49.883Z,6.10
2022-11-19T03:23:23.649Z,6.10
2022-11-19T03:25:57.534Z,6.10
2022-11-19T03:28:30.439Z,6.10
2022-11-19T03:31:00.914Z,6.00
2022-11-19T03:33:34.712Z,6.00
2022-11-19T03:36:08.286Z,6.00
2022-11-19T03:38:41.831Z,6.10
2022-11-19T03:41:12.046Z,6.00
2022-11-19T03:43:42.774Z,6.00
2022-11-19T03:46:15.645Z,6.00
2022-11-19T03:48:48.651Z,6.00
2022-11-19T03:51:21.105Z,6.00
2022-11-19T03:53:49.668Z,6.00
2022-11-19T03:56:22.821Z,6.00
2022-11-19T03:58:50.949Z,6.00
2022-11-19T04:01:19.057Z,6.00
2022-11-19T04:04:02.358Z,6.10
2022-11-19T04:06:30.344Z,6.00
2022-11-19T04:08:58.473Z,6.00
2022-11-19T04:13:53.385Z,6.00
2022-11-19T04:16:21.364Z,6.10
2022-11-19T04:18:50.788Z,6.00
2022-11-19T04:21:18.737Z,6.00
2022-11-19T04:23:46.742Z,6.00
2022-11-19T04:26:14.880Z,5.90
2022-11-19T04:28:42.847Z,6.00
2022-11-19T04:31:16.428Z,5.90
2022-11-19T04:33:45.975Z,5.90
2022-11-19T04:36:15.379Z,5.90
2022-11-19T04:38:43.770Z,5.80
2022-11-19T04:41:11.947Z,5.90
2022-11-19T04:43:40.073Z,5.80
2022-11-19T04:46:08.389Z,5.70
2022-11-19T04:48:36.544Z,5.60
2022-11-19T04:51:04.551Z,5.70
2022-11-19T04:53:33.903Z,5.70
2022-11-19T04:56:01.923Z,5.70
2022-11-19T04:58:30.008Z,5.70
2022-11-19T05:00:58.045Z,5.70
2022-11-19T05:03:26.174Z,5.70
2022-11-19T05:05:54.147Z,5.70
2022-11-19T05:08:22.370Z,5.60
2022-11-19T05:10:51.868Z,5.60
2022-11-19T05:13:19.838Z,5.70
2022-11-19T05:15:48.123Z,5.60
2022-11-19T05:18:16.369Z,5.60
2022-11-19T05:20:44.620Z,5.60
2022-11-19T05:23:12.711Z,5.60
2022-11-19T05:25:40.691Z,5.70
2022-11-19T05:28:10.146Z,5.60
2022-11-19T05:30:38.160Z,5.60
2022-11-19T05:33:06.499Z,5.70
2022-11-19T05:35:34.536Z,5.80
2022-11-19T05:38:02.828Z,5.80
2022-11-19T05:40:30.847Z,5.80
2022-11-19T05:43:05.133Z,5.80
2022-11-19T05:45:35.251Z,5.80
2022-11-19T05:48:03.265Z,5.70
2022-11-19T05:50:31.285Z,5.80
2022-11-19T05:52:59.946Z,5.80
2022-11-19T05:55:28.052Z,5.80
2022-11-19T05:57:57.191Z,5.80
2022-11-19T06:00:25.512Z,5.80
2022-11-19T06:02:54.910Z,5.80
2022-11-19T06:05:22.964Z,5.80
2022-11-19T06:07:51.115Z,5.70
2022-11-19T06:10:19.774Z,5.70
2022-11-19T06:12:47.775Z,5.80
2022-11-19T06:15:16.183Z,5.70
2022-11-19T06:17:44.455Z,5.70
2022-11-19T06:20:13.950Z,5.70
2022-11-19T06:22:41.938Z,5.70
2022-11-19T06:25:10.748Z,5.60
2022-11-19T06:27:38.797Z,5.60
2022-11-19T06:30:08.328Z,5.70
2022-11-19T06:32:36.694Z,5.60
2022-11-19T06:35:05.690Z,5.60
2022-11-19T06:37:35.911Z,5.70
2022-11-19T06:40:04.584Z,5.70
2022-11-19T06:42:38.893Z,5.60
2022-11-19T06:45:09.569Z,5.60
2022-11-19T06:47:38.765Z,5.60
2022-11-19T06:50:08.142Z,5.80
2022-11-19T06:52:37.773Z,5.80
2022-11-19T06:55:07.475Z,5.80
2022-11-19T06:57:35.464Z,5.80
2022-11-19T07:00:04.408Z,5.90
2022-11-19T07:02:32.488Z,6.00
2022-11-19T07:05:00.454Z,6.10
2022-11-19T07:07:28.699Z,6.10
2022-11-19T07:10:01.317Z,6.20
2022-11-19T07:12:30.205Z,6.20
2022-11-19T07:15:03.731Z,6.30
2022-11-19T07:17:32.799Z,6.40
2022-11-19T07:20:00.864Z,6.50
2022-11-19T07:22:30.359Z,6.50
2022-11-19T07:25:02.059Z,6.60
2022-11-19T07:27:30.034Z,6.70
2022-11-19T07:29:58.055Z,6.70
2022-11-19T07:32:26.147Z,6.70
2022-11-19T07:34:54.200Z,6.80
2022-11-19T07:37:22.203Z,6.90
2022-11-19T07:39:51.664Z,7.00
2022-11-19T07:42:38.592Z,7.30
2022-11-19T07:45:10.403Z,7.60
2022-11-19T07:47:38.870Z,7.90
2022-11-19T07:50:07.851Z,8.00
2022-11-19T07:52:36.242Z,7.90
2022-11-19T07:55:04.659Z,7.80
2022-11-19T07:57:36.285Z,7.90
2022-11-19T08:00:07.151Z,7.90
2022-11-19T08:02:41.304Z,7.90
2022-11-19T08:05:11.111Z,8.00
2022-11-19T08:07:39.439Z,8.20
2022-11-19T08:10:08.676Z,8.10
2022-11-19T08:12:40.521Z,8.30
2022-11-19T08:15:09.899Z,8.30
2022-11-19T08:17:55.808Z,8.20
2022-11-19T08:20:23.888Z,8.20
2022-11-19T08:22:53.615Z,8.60
2022-11-19T08:25:24.013Z,9.20
2022-11-19T08:27:53.514Z,10.30
2022-11-19T08:30:21.508Z,11.20
2022-11-19T08:32:49.638Z,11.80
2022-11-19T08:35:18.292Z,12.80
2022-11-19T08:37:48.146Z,13.80
2022-11-19T08:40:17.101Z,13.70
2022-11-19T08:43:03.527Z,13.50
2022-11-19T08:45:35.447Z,13.00
2022-11-19T08:48:05.165Z,12.80
2022-11-19T08:50:33.787Z,11.90
2022-11-19T08:53:04.928Z,11.40
2022-11-19T08:55:33.690Z,11.30
2022-11-19T08:58:03.860Z,11.20
2022-11-19T09:00:36.516Z,12.00
2022-11-19T09:03:04.696Z,13.00
2022-11-19T09:05:32.778Z,13.60
2022-11-19T09:08:00.933Z,14.60
2022-11-19T09:10:29.087Z,14.40
2022-11-19T09:12:57.066Z,14.10
2022-11-19T09:15:25.121Z,13.30
2022-11-19T09:17:54.902Z,13.50
2022-11-19T09:20:23.328Z,14.90
2022-11-19T09:22:51.402Z,16.10
2022-11-19T09:25:19.550Z,16.40
2022-11-19T09:27:47.619Z,16.20
2022-11-19T09:30:16.230Z,15.30
2022-11-19T09:32:44.395Z,14.10
2022-11-19T09:35:14.227Z,13.30
2022-11-19T09:37:42.796Z,12.30
2022-11-19T09:40:19.328Z,11.50
2022-11-19T09:43:01.475Z,10.90
2022-11-19T09:45:41.205Z,10.50
2022-11-19T09:48:22.304Z,10.20
2022-11-19T09:50:59.464Z,10.50
2022-11-19T09:53:32.069Z,10.50
2022-11-19T09:56:04.250Z,10.70
2022-11-19T09:58:38.068Z,10.60
2022-11-19T10:01:06.520Z,10.30
2022-11-19T10:03:34.589Z,10.00
2022-11-19T10:06:23.945Z,9.90
2022-11-19T10:09:12.496Z,9.90
2022-11-19T10:11:53.228Z,9.80
2022-11-19T10:14:46.108Z,9.70
2022-11-19T10:17:23.456Z,10.00
2022-11-19T10:20:03.689Z,10.20
2022-11-19T10:22:40.823Z,10.30
2022-11-19T10:25:18.157Z,10.50
2022-11-19T10:27:51.152Z,10.70
2022-11-19T10:30:21.692Z,11.00
2022-11-19T10:32:58.396Z,11.00
2022-11-19T10:35:31.017Z,10.60
2022-11-19T10:38:02.890Z,10.50
2022-11-19T10:40:37.819Z,10.70
2022-11-19T10:43:21.991Z,10.80
2022-11-19T10:45:51.539Z,10.70
2022-11-19T10:48:23.152Z,10.50
2022-11-19T10:50:51.708Z,10.40
2022-11-19T10:53:26.317Z,10.10
2022-11-19T10:55:58.525Z,9.80
2022-11-19T10:58:30.559Z,9.80
2022-11-19T11:01:01.638Z,10.00
2022-11-19T11:03:33.551Z,10.10
2022-11-19T11:06:05.203Z,10.10
2022-11-19T11:08:35.185Z,10.10
2022-11-19T11:11:03.359Z,10.00
2022-11-19T11:13:55.983Z,10.10
2022-11-19T11:16:27.634Z,10.20
2022-11-19T11:18:59.180Z,10.40
2022-11-19T11:21:34.549Z,10.60
2022-11-19T11:24:06.660Z,10.40
2022-11-19T11:26:37.772Z,10.40
2022-11-19T11:29:08.842Z,10.60
2022-11-19T11:31:40.559Z,10.70
2022-11-19T11:34:15.748Z,11.10
2022-11-19T11:36:45.235Z,11.30
2022-11-19T11:39:27.397Z,11.10
2022-11-19T11:42:16.021Z,11.50
2022-11-19T11:44:52.225Z,11.40
2022-11-19T11:47:23.753Z,11.20
2022-11-19T11:50:00.671Z,11.10
2022-11-19T11:52:35.038Z,11.30
2022-11-19T11:55:06.949Z,11.70
2022-11-19T11:57:36.225Z,12.20
2022-11-19T12:00:31.550Z,12.10
2022-11-19T12:03:04.659Z,11.60
2022-11-19T12:05:51.551Z,11.10
2022-11-19T12:08:35.792Z,10.80
2022-11-19T12:11:11.841Z,10.80
2022-11-19T12:14:00.513Z,10.70
2022-11-19T12:16:46.989Z,10.60
2022-11-19T12:19:34.872Z,10.50
2022-11-19T12:22:10.822Z,10.40
2022-11-19T12:24:55.965Z,10.00
2022-11-19T12:27:33.521Z,9.50
2022-11-19T12:30:07.114Z,9.40
2022-11-19T12:33:09.440Z,9.30
2022-11-19T12:35:55.618Z,9.20
2022-11-19T12:38:35.454Z,9.50
2022-11-19T12:41:29.171Z,9.80
2022-11-19T12:44:00.477Z,9.70
2022-11-19T12:46:46.870Z,9.50
2022-11-19T12:49:37.695Z,9.30
2022-11-19T12:52:20.636Z,9.30
2022-11-19T12:54:56.633Z,9.40
2022-11-19T12:57:37.361Z,9.20
2022-11-19T13:00:20.541Z,9.10
2022-11-19T13:03:08.691Z,9.00
2022-11-19T13:06:04.049Z,8.90
2022-11-19T13:08:35.520Z,8.80
2022-11-19T13:11:10.179Z,8.60
2022-11-19T13:13:42.213Z,8.70
2022-11-19T13:16:14.466Z,8.80
2022-11-19T13:18:46.600Z,8.90
2022-11-19T13:21:22.226Z,8.80
2022-11-19T13:23:51.824Z,8.80
2022-11-19T13:26:23.934Z,8.80
2022-11-19T13:28:56.058Z,8.90
2022-11-19T13:31:34.897Z,8.90
2022-11-19T13:34:09.433Z,9.00
2022-11-19T13:36:43.426Z,9.30
2022-11-19T13:39:17.400Z,9.50
2022-11-19T13:42:09.129Z,9.50
2022-11-19T13:44:41.615Z,9.50
2022-11-19T13:47:19.865Z,9.30
2022-11-19T13:49:52.394Z,9.20
2022-11-19T13:52:27.063Z,9.10
2022-11-19T13:54:57.478Z,9.10
2022-11-19T13:57:32.077Z,9.10
2022-11-19T14:00:03.246Z,9.30
2022-11-19T14:03:02.729Z,9.40
2022-11-19T14:06:07.463Z,9.40
2022-11-19T14:08:44.841Z,9.60
2022-11-19T14:11:23.767Z,9.60
2022-11-19T14:14:30.484Z,9.50
2022-11-19T14:17:25.173Z,9.50
2022-11-19T14:20:14.540Z,9.50
2022-11-19T14:23:01.659Z,9.50
2022-11-19T14:26:00.970Z,9.50
2022-11-19T14:28:42.323Z,9.50
2022-11-19T14:31:10.943Z,9.40
2022-11-19T14:34:04.060Z,9.40
2022-11-19T14:36:44.612Z,9.30
2022-11-19T14:39:20.847Z,9.20
2022-11-19T14:42:09.032Z,9.30
2022-11-19T14:44:37.205Z,9.20
2022-11-19T14:47:33.467Z,9.10
2022-11-19T14:50:05.017Z,8.80
2022-11-19T14:52:39.584Z,8.60
2022-11-19T14:55:21.150Z,8.60
2022-11-19T14:57:59.193Z,8.50
2022-11-19T15:00:31.223Z,8.50
2022-11-19T15:03:00.393Z,8.40
2022-11-19T15:05:33.235Z,8.40
2022-11-19T15:08:31.809Z,8.40
2022-11-19T15:11:08.074Z,8.50
2022-11-19T15:13:36.928Z,8.50
2022-11-19T15:16:12.149Z,8.50
2022-11-19T15:19:15.630Z,8.40
2022-11-19T15:22:16.141Z,8.40
2022-11-19T15:25:03.629Z,8.40
2022-11-19T15:27:43.777Z,8.40
2022-11-19T15:30:18.342Z,8.40
2022-11-19T15:33:04.820Z,8.30
2022-11-19T15:35:52.131Z,8.30
2022-11-19T15:38:30.729Z,8.30
2022-11-19T15:41:02.967Z,8.40
2022-11-19T15:43:35.951Z,8.30
2022-11-19T15:46:11.193Z,8.30
2022-11-19T15:48:45.811Z,8.30
2022-11-19T15:51:17.373Z,8.20
2022-11-19T15:53:59.531Z,8.20
2022-11-19T15:56:32.991Z,8.20
2022-11-19T15:59:02.682Z,8.20
2022-11-19T16:01:34.424Z,8.20
2022-11-19T16:04:07.713Z,8.30
2022-11-19T16:06:37.103Z,8.30
2022-11-19T16:09:05.902Z,8.20
2022-11-19T16:11:56.950Z,8.20
2022-11-19T16:14:44.529Z,8.20
2022-11-19T16:17:39.861Z,8.10
2022-11-19T16:20:22.991Z,8.10
2022-11-19T16:22:56.378Z,8.00
2022-11-19T16:25:31.417Z,8.00
2022-11-19T16:28:03.916Z,8.00
2022-11-19T16:30:42.743Z,7.90
2022-11-19T16:33:15.837Z,7.80
2022-11-19T16:35:48.322Z,7.80
2022-11-19T16:38:26.185Z,7.90
2022-11-19T16:41:13.145Z,7.80
2022-11-19T16:43:47.099Z,7.80
2022-11-19T16:46:17.947Z,7.80
2022-11-19T16:48:57.937Z,7.70
2022-11-19T16:51:37.918Z,7.70
2022-11-19T16:54:07.954Z,7.70
2022-11-19T16:56:40.608Z,7.60
2022-11-19T16:59:19.349Z,7.60
2022-11-19T17:01:55.297Z,7.70
2022-11-19T17:04:25.951Z,7.70
2022-11-19T17:06:54.211Z,7.60
2022-11-19T17:09:41.583Z,7.60
2022-11-19T17:12:27.760Z,7.60
2022-11-19T17:14:59.733Z,7.60
2022-11-19T17:17:41.082Z,7.50
2022-11-19T17:21:00.687Z,7.50
2022-11-19T17:23:31.489Z,7.50
2022-11-19T17:26:03.575Z,7.40
2022-11-19T17:28:40.854Z,7.40
2022-11-19T17:31:17.159Z,7.50
2022-11-19T17:33:56.660Z,7.50
2022-11-19T17:36:26.414Z,7.40
2022-11-19T17:38:54.750Z,7.40
2022-11-19T17:41:39.389Z,7.40
2022-11-19T17:44:30.669Z,7.40
2022-11-19T17:47:01.649Z,7.50
2022-11-19T17:49:29.896Z,7.40
2022-11-19T17:51:57.912Z,7.40
2022-11-19T17:54:26.069Z,7.40
2022-11-19T17:56:54.220Z,7.40
2022-11-19T17:59:22.339Z,7.40
2022-11-19T18:01:50.362Z,7.30
2022-11-19T18:04:20.112Z,7.40
2022-11-19T18:06:49.498Z,7.30
2022-11-19T18:09:19.434Z,7.30
2022-11-19T18:11:48.198Z,7.20
2022-11-19T18:14:16.296Z,7.20
2022-11-19T18:16:44.682Z,7.20
2022-11-19T18:19:14.756Z,7.20
2022-11-19T18:21:46.412Z,7.10
2022-11-19T18:24:14.404Z,7.10
2022-11-19T18:26:42.531Z,7.10
2022-11-19T18:29:12.208Z,7.10
2022-11-19T18:31:44.310Z,7.00
2022-11-19T18:34:15.507Z,7.00
2022-11-19T18:36:44.947Z,7.00
2022-11-19T18:39:13.479Z,6.90
2022-11-19T18:41:41.505Z,6.90
2022-11-19T18:44:31.272Z,6.80
2022-11-19T18:46:59.611Z,6.80
2022-11-19T18:49:27.923Z,6.70
2022-11-19T18:51:57.698Z,6.60
2022-11-19T18:54:26.187Z,6.50
2022-11-19T18:56:54.721Z,6.50
2022-11-19T18:59:23.324Z,6.50
2022-11-19T19:01:55.627Z,6.50
2022-11-19T19:04:24.454Z,6.40
2022-11-19T19:06:52.502Z,6.40
2022-11-19T19:09:22.442Z,6.50
2022-11-19T19:12:13.049Z,6.60
2022-11-19T19:14:43.019Z,6.50
2022-11-19T19:17:11.744Z,6.50
2022-11-19T19:19:40.052Z,6.60
2022-11-19T19:22:08.800Z,6.60
2022-11-19T19:24:38.456Z,6.60
2022-11-19T19:27:06.546Z,6.50
2022-11-19T19:29:34.564Z,6.50
2022-11-19T19:32:02.593Z,6.40
2022-11-19T19:34:30.894Z,6.40
2022-11-19T19:36:58.999Z,6.40
2022-11-19T19:39:27.187Z,6.40
2022-11-19T19:41:56.639Z,6.40
2022-11-19T19:44:24.695Z,6.30
2022-11-19T19:46:52.778Z,6.30
2022-11-19T19:49:21.244Z,6.20
2022-11-19T19:51:50.926Z,6.20
2022-11-19T19:54:21.408Z,6.20
2022-11-19T19:56:49.563Z,6.20
2022-11-19T19:59:19.493Z,6.20
2022-11-19T20:01:50.567Z,6.20
2022-11-19T20:04:18.730Z,6.30
2022-11-19T20:06:48.595Z,6.30
2022-11-19T20:09:16.770Z,6.30
2022-11-19T20:11:44.846Z,6.30
2022-11-19T20:14:12.910Z,6.40
2022-11-19T20:16:42.833Z,6.40
2022-11-19T20:19:16.981Z,6.40
2022-11-19T20:21:47.064Z,6.30
2022-11-19T20:24:17.086Z,6.30
2022-11-19T20:26:45.238Z,6.30
2022-11-19T20:29:16.306Z,6.30
2022-11-19T20:31:48.920Z,6.30
2022-11-19T20:34:17.802Z,6.30
2022-11-19T20:36:46.149Z,6.30
2022-11-19T20:39:14.178Z,6.30
2022-11-19T20:42:14.253Z,6.40
2022-11-19T20:44:42.291Z,6.40
2022-11-19T20:47:12.461Z,6.50
2022-11-19T20:49:40.884Z,6.40
2022-11-19T20:52:10.777Z,6.50
2022-11-19T20:54:39.079Z,6.50
2022-11-19T20:57:07.074Z,6.50
2022-11-19T20:59:35.203Z,6.50
2022-11-19T21:02:03.256Z,6.40
2022-11-19T21:04:36.407Z,6.40
2022-11-19T21:07:04.795Z,6.40
2022-11-19T21:09:33.490Z,6.30
2022-11-19T21:12:01.749Z,6.40
2022-11-19T21:14:29.793Z,6.20
2022-11-19T21:16:57.804Z,6.10
2022-11-19T21:19:25.857Z,6.10
2022-11-19T21:21:55.209Z,6.20
2022-11-19T21:24:23.227Z,6.10
2022-11-19T21:26:52.028Z,6.20
2022-11-19T21:29:20.250Z,6.20
2022-11-19T21:31:49.123Z,6.20
2022-11-19T21:34:18.628Z,6.20
2022-11-19T21:36:47.831Z,6.00
2022-11-19T21:39:19.422Z,6.10
2022-11-19T21:41:47.871Z,6.00
2022-11-19T21:44:21.046Z,6.10
2022-11-19T21:46:49.993Z,5.90
2022-11-19T21:49:18.818Z,5.80
2022-11-19T21:51:47.017Z,5.70
2022-11-19T21:54:15.003Z,5.70
2022-11-19T21:56:44.423Z,5.60
2022-11-19T21:59:12.495Z,5.60
2022-11-19T22:01:40.499Z,5.50
2022-11-19T22:04:08.518Z,5.50
2022-11-19T22:06:36.551Z,5.50
2022-11-19T22:09:04.743Z,5.40
2022-11-19T22:11:32.750Z,5.40
2022-11-19T22:14:04.432Z,5.40
2022-11-19T22:16:34.890Z,5.30
2022-11-19T22:19:02.950Z,5.30
2022-11-19T22:21:30.984Z,5.30
2022-11-19T22:23:59.189Z,5.20
2022-11-19T22:26:27.269Z,5.30
2022-11-19T22:28:55.681Z,5.30
2022-11-19T22:31:25.686Z,5.30
2022-11-19T22:33:54.107Z,5.30
2022-11-19T22:36:23.063Z,5.40
2022-11-19T22:38:51.921Z,5.40
2022-11-19T22:41:22.487Z,5.40
2022-11-19T22:43:51.154Z,5.40
2022-11-19T22:46:20.293Z,5.40
2022-11-19T22:48:49.689Z,5.50
2022-11-19T22:51:20.422Z,5.30
2022-11-19T22:53:48.988Z,5.40
2022-11-19T22:56:19.187Z,5.40
2022-11-19T22:58:47.341Z,5.40
2022-11-19T23:01:18.138Z,5.50
2022-11-19T23:03:46.591Z,5.50
2022-11-19T23:06:16.187Z,5.60
2022-11-19T23:08:44.891Z,5.60
2022-11-19T23:11:15.113Z,5.60
2022-11-19T23:13:44.062Z,5.60
2022-11-19T23:16:14.133Z,5.70
2022-11-19T23:18:46.681Z,5.70
2022-11-19T23:21:18.036Z,5.70
2022-11-19T23:23:46.067Z,5.70
2022-11-19T23:26:16.092Z,5.80
2022-11-19T23:28:44.704Z,5.70
2022-11-19T23:31:16.185Z,5.70
2022-11-19T23:33:44.594Z,5.70
2022-11-19T23:36:15.581Z,5.70
2022-11-19T23:38:43.735Z,5.70
2022-11-19T23:41:13.655Z,5.80
2022-11-19T23:43:42.281Z,5.80
2022-11-19T23:46:13.192Z,5.90
2022-11-19T23:48:42.839Z,5.90
2022-11-19T23:51:12.586Z,5.90
2022-11-19T23:53:42.089Z,5.70
2022-11-19T23:56:10.239Z,5.70
2022-11-19T23:58:39.054Z,5.70
